Time;durP1;ratioP1;P1;durP2;ratioP2;P2;SDS_P1;SDS_P2;PMS_P1;PMS_P2;Temp;Humidity;BMP_temperature;BMP_pressure;BME280_temperature;BME280_humidity;BME280_pressure;Samples;Min_cycle;Max_cycle;Signal;HPM_P1;HPM_P2
2023/04/08 05:57:29;;;;;;;94.25;62.95;;;;;;;18.75;44.21;101858.34;5131407;27;20542;-52
2023/04/08 05:59:58;;;;;;;93.15;62.13;;;;;;;19.51;42.51;101858.44;5110731;28;20035;-54
2023/04/08 06:02:26;;;;;;;96.95;62.05;;;;;;;20.12;41.15;101855.13;5110628;28;20038;-43
2023/04/08 06:04:55;;;;;;;85.13;59.75;;;;;;;20.56;40.12;101854.31;5110737;28;20032;-51
2023/04/08 06:07:24;;;;;;;90.20;60.97;;;;;;;20.90;39.24;101858.34;5109041;28;20396;-54
2023/04/08 06:09:52;;;;;;;89.35;62.55;;;;;;;21.20;38.84;101856.06;5110566;28;20177;-44
2023/04/08 06:12:21;;;;;;;93.10;62.30;;;;;;;21.38;38.29;101861.09;5110656;28;20047;-55
2023/04/08 06:14:54;;;;;;;94.50;63.00;;;;;;;21.53;38.06;101860.78;5110260;28;20028;-55
2023/04/08 06:17:23;;;;;;;92.25;61.88;;;;;;;21.65;38.05;101865.63;5110836;28;20030;-54
2023/04/08 06:19:52;;;;;;;92.22;61.45;;;;;;;21.66;38.21;101867.41;5110352;28;20378;-53
2023/04/08 06:22:21;;;;;;;91.95;63.50;;;;;;;21.69;38.11;101867.50;5110096;28;20441;-54
2023/04/08 06:24:49;;;;;;;90.05;62.08;;;;;;;21.78;37.71;101869.56;5110239;28;20024;-53
2023/04/08 06:27:18;;;;;;;94.60;63.80;;;;;;;21.79;37.87;101867.84;5110392;28;20023;-54
2023/04/08 06:29:47;;;;;;;89.03;60.65;;;;;;;21.78;38.04;101868.69;5110122;28;20103;-45
2023/04/08 06:32:15;;;;;;;95.80;65.82;;;;;;;21.85;37.67;101866.34;5110517;28;20129;-55
2023/04/08 06:34:45;;;;;;;93.68;65.93;;;;;;;21.91;37.92;101867.41;5109278;28;20030;-50
2023/04/08 06:37:14;;;;;;;91.10;65.13;;;;;;;21.96;37.99;101871.97;5108492;28;20032;-54
2023/04/08 06:39:43;;;;;;;99.10;63.60;;;;;;;22.01;37.87;101872.13;5110101;28;20020;-54
2023/04/08 06:42:11;;;;;;;93.28;63.92;;;;;;;22.05;37.50;101870.50;5108757;28;20376;-54
2023/04/08 06:44:39;;;;;;;96.10;63.03;;;;;;;22.07;37.84;101871.44;5109947;28;20081;-52
2023/04/08 06:47:08;;;;;;;90.05;64.10;;;;;;;22.08;37.63;101874.13;5110387;28;20370;-54
2023/04/08 06:49:36;;;;;;;91.28;63.42;;;;;;;22.13;38.01;101889.97;5109892;28;20042;-55
2023/04/08 06:52:05;;;;;;;90.55;62.97;;;;;;;22.20;37.76;101896.28;5110119;28;20027;-46
2023/04/08 06:54:34;;;;;;;92.38;63.30;;;;;;;22.22;37.65;101894.63;5109945;28;20047;-54
2023/04/08 06:57:03;;;;;;;88.50;62.75;;;;;;;22.28;37.67;101897.44;5109236;28;20147;-54
2023/04/08 06:59:31;;;;;;;92.78;62.72;;;;;;;22.35;37.64;101901.16;5109503;28;20034;-52
2023/04/08 07:02:00;;;;;;;96.32;63.83;;;;;;;22.36;37.55;101902.94;5109342;28;20024;-55
2023/04/08 07:04:28;;;;;;;87.38;62.92;;;;;;;22.44;37.79;101904.13;5109239;28;20053;-43
2023/04/08 07:06:57;;;;;;;99.47;63.63;;;;;;;22.53;37.61;101900.94;5106050;28;20036;-52
2023/04/08 07:09:26;;;;;;;93.25;65.85;;;;;;;22.55;37.91;101904.50;5096092;28;20028;-50
2023/04/08 07:11:54;;;;;;;92.72;64.95;;;;;;;22.55;37.55;101908.00;5095772;28;20099;-47
2023/04/08 07:14:23;;;;;;;96.43;67.90;;;;;;;22.63;37.79;101910.00;5095928;28;20028;-45
2023/04/08 07:16:51;;;;;;;95.53;65.60;;;;;;;22.70;37.75;101915.47;5095892;28;20053;-52
2023/04/08 07:19:20;;;;;;;99.15;67.25;;;;;;;22.72;37.62;101921.66;5095891;28;20125;-54
2023/04/08 07:21:49;;;;;;;99.90;66.85;;;;;;;22.82;37.69;101921.94;5095642;28;20534;-55
2023/04/08 07:24:17;;;;;;;96.43;66.68;;;;;;;22.84;37.90;101921.16;5095974;28;20062;-48
2023/04/08 07:26:46;;;;;;;102.43;69.05;;;;;;;22.92;38.04;101921.41;5095776;28;20402;-44
2023/04/08 07:29:15;;;;;;;100.47;68.72;;;;;;;23.00;37.79;101927.78;5095639;28;20024;-51
2023/04/08 07:31:45;;;;;;;98.80;67.93;;;;;;;23.00;37.58;101922.53;5095142;28;20043;-43
2023/04/08 07:34:13;;;;;;;102.63;68.72;;;;;;;23.01;37.60;101920.81;5095543;28;20085;-50
2023/04/08 07:36:42;;;;;;;103.78;69.03;;;;;;;23.07;37.85;101913.16;5095347;28;20039;-54
2023/04/08 07:39:10;;;;;;;105.03;67.95;;;;;;;23.12;37.51;101914.22;5095001;28;20134;-43
2023/04/08 07:41:39;;;;;;;96.47;67.13;;;;;;;23.15;37.65;101918.63;5095700;28;20110;-51
2023/04/08 07:44:08;;;;;;;105.25;70.97;;;;;;;23.17;37.76;101911.72;5094931;28;20024;-52
2023/04/08 07:46:39;;;;;;;99.72;66.50;;;;;;;23.17;37.93;101911.72;5095163;28;20035;-55
2023/04/08 07:49:09;;;;;;;96.47;64.72;;;;;;;23.28;37.75;101926.06;5095390;28;20058;-43
2023/04/08 07:51:38;;;;;;;97.75;66.03;;;;;;;23.34;37.70;101925.38;5095414;28;20396;-46
2023/04/08 07:54:06;;;;;;;95.82;65.63;;;;;;;23.38;37.46;101927.25;5094966;28;20062;-54
2023/04/08 07:56:36;;;;;;;94.65;67.18;;;;;;;23.40;37.72;101925.56;5094801;28;20056;-54
2023/04/08 07:59:05;;;;;;;100.47;66.15;;;;;;;23.45;37.25;101939.69;5095140;28;20073;-54
2023/04/08 08:01:34;;;;;;;96.20;66.00;;;;;;;23.57;37.62;101938.28;5094973;28;20024;-56
2023/04/08 08:04:03;;;;;;;100.55;65.95;;;;;;;23.60;37.13;101946.25;5093296;28;20032;-51
2023/04/08 08:06:32;;;;;;;92.65;60.80;;;;;;;23.52;37.11;101941.63;5094550;28;20438;-47
2023/04/08 08:08:59;;;;;;;81.60;56.90;;;;;;;23.56;36.83;101939.13;5090615;28;20024;-46
2023/04/08 08:11:27;;;;;;;82.50;52.88;;;;;;;23.39;36.07;101942.13;5083992;28;20435;-48
2023/04/08 08:13:54;;;;;;;59.45;37.28;;;;;;;23.16;35.20;101949.22;5083281;28;20024;-49
2023/04/08 08:16:25;;;;;;;40.05;26.77;;;;;;;23.04;34.17;101940.13;5086023;28;20112;-52
2023/04/08 08:18:54;;;;;;;50.40;32.42;;;;;;;22.89;35.12;101943.13;5088477;28;20024;-48
2023/04/08 08:21:22;;;;;;;45.15;29.25;;;;;;;22.84;34.41;101952.53;5096584;28;20017;-50
2023/04/08 08:23:51;;;;;;;52.03;35.05;;;;;;;22.83;35.91;101953.41;5084698;28;20060;-54
2023/04/08 08:26:20;;;;;;;46.13;29.30;;;;;;;22.92;35.03;101953.69;5082178;28;20421;-47
2023/04/08 08:28:48;;;;;;;39.30;26.45;;;;;;;22.80;34.52;101960.25;5084409;28;20026;-45
2023/04/08 08:31:16;;;;;;;34.90;20.08;;;;;;;22.75;33.39;101962.72;5084866;28;20035;-46
2023/04/08 08:33:45;;;;;;;37.95;22.20;;;;;;;22.68;34.03;101959.00;5084987;28;20032;-53
2023/04/08 08:36:13;;;;;;;32.20;19.02;;;;;;;22.70;33.38;101961.66;5085034;28;20060;-52
2023/04/08 08:38:42;;;;;;;36.42;19.20;;;;;;;22.63;33.14;101965.78;5089506;28;20419;-50
2023/04/08 08:41:10;;;;;;;33.80;18.95;;;;;;;22.65;33.84;101963.25;5093876;28;20047;-53
2023/04/08 08:43:39;;;;;;;34.85;21.70;;;;;;;22.72;34.19;101966.13;5094273;28;20030;-50
2023/04/08 08:46:11;;;;;;;27.38;16.88;;;;;;;22.56;33.42;101963.81;5092739;28;20024;-53
2023/04/08 08:48:40;;;;;;;36.85;19.08;;;;;;;22.56;33.63;101967.31;5094106;28;20027;-50
2023/04/08 08:51:10;;;;;;;30.10;20.05;;;;;;;22.59;33.57;101962.19;5093351;28;20028;-53
2023/04/08 08:53:39;;;;;;;29.83;18.30;;;;;;;22.68;33.83;101968.56;5093732;28;20024;-46
2023/04/08 08:56:09;;;;;;;31.40;16.95;;;;;;;22.74;33.18;101974.00;5093380;28;20048;-52
2023/04/08 08:58:38;;;;;;;29.63;18.45;;;;;;;22.80;33.51;101979.47;5092620;28;20420;-46
2023/04/08 09:01:36;;;;;;;30.00;18.23;;;;;;;22.76;33.33;101975.81;5093550;28;20028;-54
2023/04/08 09:04:09;;;;;;;24.52;14.73;;;;;;;22.65;32.29;101963.25;5092126;28;20050;-53
2023/04/08 09:06:38;;;;;;;28.73;15.15;;;;;;;22.64;32.70;101969.31;5094010;28;20370;-48
2023/04/08 09:09:10;;;;;;;22.65;13.50;;;;;;;22.55;32.90;101967.25;5093500;28;20027;-52
2023/04/08 09:11:40;;;;;;;20.85;11.02;;;;;;;22.59;32.00;101975.25;5093566;28;20122;-53
2023/04/08 09:14:27;;;;;;;20.58;12.32;;;;;;;22.57;31.87;101979.53;5093659;28;20036;-43
2023/04/08 09:16:56;;;;;;;19.75;10.57;;;;;;;22.54;32.36;101978.56;5093532;28;20036;-45
2023/04/08 09:19:25;;;;;;;20.30;9.75;;;;;;;22.49;31.78;101987.94;5091913;28;20028;-52
2023/04/08 09:22:07;;;;;;;21.02;11.02;;;;;;;22.32;32.30;101993.44;5093221;28;20024;-53
2023/04/08 09:24:36;;;;;;;19.90;10.77;;;;;;;22.36;32.07;101997.03;5092045;28;20500;-49
2023/04/08 09:27:06;;;;;;;17.83;10.27;;;;;;;22.45;32.19;101998.31;5093507;28;20028;-54
2023/04/08 09:29:36;;;;;;;19.15;10.38;;;;;;;22.43;31.56;101997.34;5092149;28;20031;-53
2023/04/08 09:32:04;;;;;;;18.48;9.80;;;;;;;22.31;31.80;101995.19;5093085;28;20437;-49
2023/04/08 09:34:33;;;;;;;18.92;11.02;;;;;;;22.40;32.14;101992.00;5092039;28;20107;-54
2023/04/08 09:37:02;;;;;;;16.88;9.68;;;;;;;22.29;32.02;101991.59;5093329;28;20024;-50
2023/04/08 09:39:31;;;;;;;28.25;11.93;;;;;;;22.41;32.53;101996.41;5093378;28;20030;-51
2023/04/08 09:42:00;;;;;;;19.42;10.55;;;;;;;22.45;31.39;101997.44;5093280;28;20419;-52
2023/04/08 09:44:30;;;;;;;18.80;9.93;;;;;;;22.32;32.10;101990.81;5092822;28;20019;-50
2023/04/08 09:47:06;;;;;;;16.00;9.90;;;;;;;22.22;32.10;102004.41;5093114;28;20438;-52
2023/04/08 09:49:42;;;;;;;14.73;9.63;;;;;;;22.19;32.64;102006.91;5093469;28;20078;-50
2023/04/08 09:52:11;;;;;;;17.95;10.93;;;;;;;22.23;32.38;102003.56;5091588;28;20032;-51
2023/04/08 09:54:43;;;;;;;19.48;10.50;;;;;;;22.31;32.28;102007.34;5093082;28;20040;-43
2023/04/08 09:57:17;;;;;;;21.10;11.00;;;;;;;22.27;31.79;102006.34;5092362;28;20098;-52
2023/04/08 09:59:54;;;;;;;19.63;9.65;;;;;;;22.29;31.68;102015.13;5093435;28;20462;-46
2023/04/08 10:02:30;;;;;;;15.65;8.38;;;;;;;22.28;31.70;102002.91;5093155;28;20469;-51
2023/04/08 10:05:00;;;;;;;16.42;6.60;;;;;;;22.29;31.20;102011.63;5093015;28;20028;-52
2023/04/08 10:07:28;;;;;;;12.77;6.65;;;;;;;22.27;30.76;102010.66;5092466;28;20032;-51
2023/04/08 10:09:58;;;;;;;13.95;7.13;;;;;;;22.17;31.10;102006.84;5091587;28;20089;-44
2023/04/08 10:12:26;;;;;;;13.25;6.97;;;;;;;22.09;31.56;101998.69;5092747;28;20159;-53
2023/04/08 10:15:26;;;;;;;11.18;6.05;;;;;;;22.16;30.87;101994.63;5092738;28;20028;-43
2023/04/08 10:18:17;;;;;;;15.07;7.03;;;;;;;22.12;30.74;101996.19;5090174;28;20043;-55
2023/04/08 10:20:45;;;;;;;12.68;5.40;;;;;;;22.18;31.07;101992.03;5087573;28;20040;-51
2023/04/08 10:23:15;;;;;;;10.40;5.63;;;;;;;22.08;31.08;101990.81;5092550;28;20028;-49
2023/04/08 10:25:46;;;;;;;12.77;6.15;;;;;;;21.99;31.26;101993.97;5092708;28;20039;-51
2023/04/08 10:28:18;;;;;;;14.10;6.65;;;;;;;22.02;30.92;101996.69;5092776;28;20038;-48
2023/04/08 10:30:57;;;;;;;15.00;7.13;;;;;;;22.03;30.33;101993.25;5092326;28;20435;-52
2023/04/08 10:33:33;;;;;;;16.48;8.60;;;;;;;21.96;30.75;101983.41;5092763;28;20034;-50
2023/04/08 10:36:01;;;;;;;17.88;9.07;;;;;;;21.92;31.65;101973.69;5091399;28;20032;-49
2023/04/08 10:38:30;;;;;;;16.77;9.48;;;;;;;21.86;32.00;101976.94;5092549;28;20515;-48
2023/04/08 10:40:58;;;;;;;21.83;11.45;;;;;;;21.91;31.54;101978.00;5092468;28;20477;-51
2023/04/08 10:43:26;;;;;;;19.15;10.70;;;;;;;21.98;32.01;101993.09;5095156;28;20028;-41
2023/04/08 10:45:54;;;;;;;22.02;10.50;;;;;;;21.94;31.52;101992.91;5096660;28;20036;-43
2023/04/08 10:48:24;;;;;;;16.13;8.68;;;;;;;21.91;31.49;101983.22;5096104;28;20036;-46
2023/04/08 10:50:58;;;;;;;20.30;10.73;;;;;;;21.98;31.53;101979.13;5096419;28;20107;-52
2023/04/08 10:53:27;;;;;;;18.23;9.32;;;;;;;21.96;31.37;101981.69;5096601;28;20031;-49
2023/04/08 10:56:06;;;;;;;19.08;9.70;;;;;;;21.89;31.84;101989.25;5095675;28;20142;-52
2023/04/08 10:58:35;;;;;;;14.95;9.23;;;;;;;21.95;31.46;101981.63;5096253;28;20031;-43
2023/04/08 11:01:07;;;;;;;16.75;8.80;;;;;;;21.85;31.58;101977.75;5095831;28;20024;-53
2023/04/08 11:03:36;;;;;;;21.98;10.02;;;;;;;21.74;31.97;101989.53;5096303;28;20077;-53
2023/04/08 11:06:04;;;;;;;18.05;9.35;;;;;;;21.68;31.90;101977.13;5096019;28;20020;-49
2023/04/08 11:08:35;;;;;;;16.40;9.27;;;;;;;21.57;32.41;101974.06;5095973;28;20020;-53
2023/04/08 11:11:07;;;;;;;18.38;11.05;;;;;;;21.62;32.37;101964.72;5094834;28;20032;-51
2023/04/08 11:13:38;;;;;;;18.08;10.65;;;;;;;21.73;32.59;101974.69;5095640;28;20028;-49
2023/04/08 11:16:08;;;;;;;17.00;9.32;;;;;;;21.76;32.17;101967.84;5094542;28;20517;-43
2023/04/08 11:18:39;;;;;;;16.30;9.48;;;;;;;21.80;32.09;101971.50;5095705;28;20051;-43
2023/04/08 11:21:11;;;;;;;17.13;10.68;;;;;;;21.68;32.52;101967.56;5094431;28;20085;-50
2023/04/08 11:23:39;;;;;;;17.33;10.68;;;;;;;21.67;32.39;101973.66;5095345;28;20101;-50
2023/04/08 11:26:08;;;;;;;17.45;9.40;;;;;;;21.69;32.33;101971.06;5095494;28;20031;-51
2023/04/08 11:28:37;;;;;;;18.40;10.18;;;;;;;21.58;32.32;101967.13;5095741;28;20400;-51
2023/04/08 11:31:07;;;;;;;17.92;10.82;;;;;;;21.61;32.35;101968.16;5095441;28;20036;-50
2023/04/08 11:33:36;;;;;;;17.33;10.60;;;;;;;21.57;32.61;101960.13;5095523;28;20032;-52
2023/04/08 11:36:04;;;;;;;16.38;10.10;;;;;;;21.58;31.92;101967.13;5095686;28;20055;-53
2023/04/08 11:38:33;;;;;;;19.55;11.38;;;;;;;21.54;31.89;101971.31;5094036;28;20424;-52
2023/04/08 11:41:00;;;;;;;14.45;8.63;;;;;;;21.62;31.55;101966.44;5095191;28;20102;-51
2023/04/08 11:43:29;;;;;;;17.85;8.30;;;;;;;21.62;30.99;101966.44;5095237;28;20123;-53
2023/04/08 11:45:58;;;;;;;19.90;10.40;;;;;;;21.60;31.65;101962.84;5095403;28;20031;-52
2023/04/08 11:48:27;;;;;;;20.05;12.70;;;;;;;21.69;31.74;101958.91;5095215;28;20123;-43
2023/04/08 11:51:08;;;;;;;19.80;11.27;;;;;;;21.62;31.39;101950.78;5095286;28;20099;-45
2023/04/08 11:53:37;;;;;;;17.77;11.35;;;;;;;21.68;31.52;101956.25;5095223;28;20103;-54
2023/04/08 11:56:25;;;;;;;18.15;10.50;;;;;;;21.73;31.35;101966.84;5093501;28;20113;-49
2023/04/08 11:58:53;;;;;;;20.25;13.02;;;;;;;21.76;31.35;101961.75;5094448;28;20024;-46
2023/04/08 12:01:21;;;;;;;25.02;12.38;;;;;;;21.81;31.15;101958.47;5094300;28;20032;-46
2023/04/08 12:04:00;;;;;;;20.35;10.63;;;;;;;21.77;31.13;101956.56;5095253;28;20507;-50
2023/04/08 12:06:30;;;;;;;19.98;10.80;;;;;;;21.67;30.74;101955.38;5093549;28;20028;-52
2023/04/08 12:08:59;;;;;;;20.00;11.25;;;;;;;21.63;31.25;101953.47;5095077;28;20038;-43
2023/04/08 12:11:27;;;;;;;23.42;13.70;;;;;;;21.63;32.05;101950.84;5094824;28;20085;-43
2023/04/08 12:13:55;;;;;;;25.80;14.73;;;;;;;21.76;31.72;101952.19;5095162;28;20028;-50
2023/04/08 12:16:24;;;;;;;26.27;15.65;;;;;;;21.81;32.28;101955.00;5093407;28;20058;-44
2023/04/08 12:18:52;;;;;;;27.13;15.85;;;;;;;21.94;32.03;101949.38;5094943;28;20020;-43
2023/04/08 12:21:21;;;;;;;26.90;16.67;;;;;;;22.03;32.26;101945.31;5092990;28;20117;-53
2023/04/08 12:23:49;;;;;;;29.85;18.88;;;;;;;22.18;32.28;101952.84;5094592;28;20379;-50
2023/04/08 12:26:18;;;;;;;29.95;17.35;;;;;;;22.25;31.72;101945.28;5094417;28;20071;-47
2023/04/08 12:28:47;;;;;;;31.15;21.15;;;;;;;22.21;32.44;101958.19;5094520;28;20034;-52
2023/04/08 12:31:15;;;;;;;34.45;21.13;;;;;;;22.26;32.35;101952.28;5094183;28;20059;-43
2023/04/08 12:33:44;;;;;;;34.60;19.77;;;;;;;22.38;32.63;101943.09;5092475;28;20062;-51
2023/04/08 12:36:12;;;;;;;35.38;20.38;;;;;;;22.33;33.19;101950.78;5094116;28;20039;-49
2023/04/08 12:38:41;;;;;;;39.78;21.15;;;;;;;22.32;33.37;101954.22;5094465;28;20073;-50
2023/04/08 12:41:09;;;;;;;38.50;22.05;;;;;;;22.29;33.38;101948.88;5092911;28;20368;-51
2023/04/08 12:43:38;;;;;;;37.88;24.38;;;;;;;22.35;33.93;101945.59;5094244;28;20024;-43
2023/04/08 12:46:06;;;;;;;36.03;22.45;;;;;;;22.34;33.39;101951.69;5092880;28;20028;-43
2023/04/08 12:48:35;;;;;;;39.00;23.65;;;;;;;22.34;33.84;101954.28;5092905;28;20028;-49
2023/04/08 12:51:04;;;;;;;38.10;22.95;;;;;;;22.26;33.48;101954.91;5093702;28;20028;-52
2023/04/08 12:53:33;;;;;;;38.55;22.98;;;;;;;22.29;33.62;101946.25;5093910;28;20027;-54
2023/04/08 12:56:02;;;;;;;37.13;25.02;;;;;;;22.42;33.94;101948.50;5092746;28;20071;-54
2023/04/08 12:58:30;;;;;;;37.03;24.38;;;;;;;22.40;33.65;101951.88;5093622;28;20054;-50
2023/04/08 13:00:59;;;;;;;37.90;24.20;;;;;;;22.43;33.99;101950.28;5093794;28;20036;-53
2023/04/08 13:03:30;;;;;;;42.22;25.65;;;;;;;22.33;34.10;101947.28;5093928;28;20031;-43
2023/04/08 13:05:58;;;;;;;40.83;25.48;;;;;;;22.39;33.85;101950.09;5085560;28;20020;-50
2023/04/08 13:08:26;;;;;;;44.97;28.00;;;;;;;22.52;33.97;101941.00;5083202;28;20457;-44
2023/04/08 13:10:55;;;;;;;44.38;26.88;;;;;;;22.60;33.60;101937.81;5081668;28;20398;-43
2023/04/08 13:13:24;;;;;;;44.83;27.67;;;;;;;22.48;33.98;101934.78;5083943;28;20028;-44
2023/04/08 13:15:52;;;;;;;41.95;26.42;;;;;;;22.52;33.72;101935.78;5080366;28;20060;-53
2023/04/08 13:18:21;;;;;;;40.92;24.63;;;;;;;22.44;34.02;101928.53;5080550;28;20055;-46
2023/04/08 13:20:50;;;;;;;41.60;24.85;;;;;;;22.40;34.19;101931.88;5081066;28;20519;-44
2023/04/08 13:23:18;;;;;;;41.05;26.02;;;;;;;22.43;33.99;101931.09;5084509;28;20058;-43
2023/04/08 13:25:47;;;;;;;39.50;25.05;;;;;;;22.41;33.92;101930.13;5084279;28;20103;-43
2023/04/08 13:28:16;;;;;;;36.85;24.75;;;;;;;22.43;34.43;101924.13;5080341;28;20044;-42
2023/04/08 13:30:44;;;;;;;42.00;26.70;;;;;;;22.56;34.12;101925.47;5081156;28;20028;-50
2023/04/08 13:33:13;;;;;;;42.38;26.00;;;;;;;22.56;34.07;101920.22;5083697;28;20115;-50
2023/04/08 13:35:41;;;;;;;44.30;27.75;;;;;;;22.57;34.07;101923.75;5081556;28;20040;-53
2023/04/08 13:38:10;;;;;;;36.20;24.05;;;;;;;22.57;33.87;101922.00;5085018;28;20036;-50
2023/04/08 13:40:39;;;;;;;44.35;26.67;;;;;;;22.61;34.00;101913.44;5082031;28;20020;-51
2023/04/08 13:43:07;;;;;;;44.40;25.95;;;;;;;22.69;33.81;101907.56;5082480;28;20458;-43
2023/04/08 13:45:36;;;;;;;53.60;28.98;;;;;;;22.66;34.24;101913.59;5081974;28;20504;-52
2023/04/08 13:48:04;;;;;;;48.70;28.67;;;;;;;22.71;33.98;101908.50;5080920;28;20035;-53
2023/04/08 13:50:33;;;;;;;41.67;26.25;;;;;;;22.66;34.00;101899.63;5082031;28;20055;-50
2023/04/08 13:53:01;;;;;;;43.10;26.38;;;;;;;22.61;33.89;101892.53;5081880;28;20027;-54
2023/04/08 13:55:30;;;;;;;43.80;28.35;;;;;;;22.77;34.00;101901.75;5079869;28;20044;-54
2023/04/08 13:57:59;;;;;;;50.38;32.25;;;;;;;22.57;34.69;101898.47;5080553;28;20024;-48
2023/04/08 14:00:27;;;;;;;54.00;33.15;;;;;;;22.61;34.64;101902.06;5080616;28;20035;-42
2023/04/08 14:02:56;;;;;;;51.50;33.20;;;;;;;22.70;34.87;101894.56;5083738;28;20397;-54
2023/04/08 14:05:24;;;;;;;53.88;36.40;;;;;;;22.77;34.63;101903.50;5080447;28;20039;-52
2023/04/08 14:07:53;;;;;;;54.70;37.80;;;;;;;22.85;34.40;101899.38;5084513;28;20028;-46
2023/04/08 14:10:21;;;;;;;59.55;38.42;;;;;;;22.93;34.34;101889.16;5079782;28;20397;-54
2023/04/08 14:12:50;;;;;;;65.63;39.78;;;;;;;23.00;34.31;101891.16;5083935;28;20033;-55
2023/04/08 14:15:19;;;;;;;60.38;39.95;;;;;;;23.08;34.69;101893.13;5079961;28;20366;-43
2023/04/08 14:17:47;;;;;;;68.50;42.83;;;;;;;23.06;34.55;101893.97;5086886;28;20495;-51
2023/04/08 14:20:16;;;;;;;63.05;43.25;;;;;;;23.09;34.60;101887.94;5085504;28;20503;-54
2023/04/08 14:22:45;;;;;;;66.82;44.75;;;;;;;23.10;34.61;101886.19;5085058;28;20036;-55
2023/04/08 14:25:13;;;;;;;70.85;45.88;;;;;;;23.09;34.47;101874.84;5086582;28;20497;-55
2023/04/08 14:27:42;;;;;;;75.90;45.85;;;;;;;23.13;34.54;101876.72;5086602;28;20028;-54
2023/04/08 14:30:11;;;;;;;72.95;46.90;;;;;;;23.14;34.51;101875.88;5086166;28;20024;-53
2023/04/08 14:32:40;;;;;;;76.40;47.25;;;;;;;23.14;34.62;101873.28;5085859;28;20024;-53
2023/04/08 14:35:08;;;;;;;79.80;49.95;;;;;;;23.17;34.92;101872.47;5085529;28;20450;-53
2023/04/08 14:37:37;;;;;;;75.05;48.00;;;;;;;23.18;34.73;101874.25;5084175;28;20451;-51
2023/04/08 14:40:06;;;;;;;82.05;51.05;;;;;;;23.18;34.89;101874.25;5085245;28;20036;-51
2023/04/08 14:42:35;;;;;;;75.53;48.85;;;;;;;23.23;34.75;101869.19;5086080;28;20048;-46
2023/04/08 14:45:03;;;;;;;79.75;51.45;;;;;;;23.27;34.65;101871.94;5086823;28;20389;-43
2023/04/08 14:47:32;;;;;;;81.43;49.88;;;;;;;23.27;34.87;101868.44;5096555;28;20057;-50
2023/04/08 14:50:00;;;;;;;90.38;53.05;;;;;;;23.30;35.12;101873.78;5096296;28;20085;-54
2023/04/08 14:52:29;;;;;;;85.90;52.92;;;;;;;23.19;35.13;101862.94;5095879;28;20035;-53
